sensor_id;sensor_type;location;lat;lon;timestamp;P1;durP1;ratioP1;P2;durP2;ratioP2
61553;SDS011;47425;51.976;5.326;2022-12-17T08:02:36;13.27;;;9.00;;
61553;SDS011;47425;51.976;5.326;2022-12-17T08:05:22;11.80;;;9.07;;
61553;SDS011;47425;51.976;5.326;2022-12-17T08:08:07;12.52;;;8.52;;
61553;SDS011;47425;51.976;5.326;2022-12-17T08:10:54;11.90;;;8.80;;
61553;SDS011;47425;51.976;5.326;2022-12-17T08:13:39;13.20;;;8.98;;
61553;SDS011;47425;51.976;5.326;2022-12-17T08:16:24;12.20;;;8.93;;
61553;SDS011;47425;51.976;5.326;2022-12-17T08:19:28;12.52;;;9.30;;
61553;SDS011;47425;51.976;5.326;2022-12-17T08:22:12;12.15;;;9.13;;
61553;SDS011;47425;51.976;5.326;2022-12-17T08:24:58;12.65;;;9.15;;
61553;SDS011;47425;51.976;5.326;2022-12-17T08:27:44;11.57;;;9.23;;
61553;SDS011;47425;51.976;5.326;2022-12-17T08:30:29;13.88;;;9.40;;
61553;SDS011;47425;51.976;5.326;2022-12-17T08:33:15;13.88;;;9.05;;
61553;SDS011;47425;51.976;5.326;2022-12-17T08:36:00;11.15;;;8.85;;
61553;SDS011;47425;51.976;5.326;2022-12-17T08:38:45;11.98;;;8.65;;
61553;SDS011;47425;51.976;5.326;2022-12-17T08:41:30;13.23;;;9.63;;
61553;SDS011;47425;51.976;5.326;2022-12-17T08:44:15;12.35;;;9.05;;
61553;SDS011;47425;51.976;5.326;2022-12-17T08:47:19;12.32;;;9.27;;
61553;SDS011;47425;51.976;5.326;2022-12-17T08:50:04;12.20;;;8.77;;
61553;SDS011;47425;51.976;5.326;2022-12-17T08:52:57;13.13;;;9.13;;
61553;SDS011;47425;51.976;5.326;2022-12-17T08:55:43;10.75;;;8.57;;
61553;SDS011;47425;51.976;5.326;2022-12-17T08:58:27;13.25;;;9.25;;
61553;SDS011;47425;51.976;5.326;2022-12-17T09:01:12;12.23;;;9.57;;
61553;SDS011;47425;51.976;5.326;2022-12-17T09:03:57;11.98;;;9.15;;
61553;SDS011;47425;51.976;5.326;2022-12-17T09:06:43;11.10;;;9.10;;
61553;SDS011;47425;51.976;5.326;2022-12-17T09:09:26;13.10;;;9.32;;
61553;SDS011;47425;51.976;5.326;2022-12-17T09:12:12;12.18;;;9.43;;
61553;SDS011;47425;51.976;5.326;2022-12-17T09:14:56;11.82;;;8.70;;
61553;SDS011;47425;51.976;5.326;2022-12-17T09:17:41;12.32;;;8.90;;
61553;SDS011;47425;51.976;5.326;2022-12-17T09:20:26;14.32;;;9.35;;
61553;SDS011;47425;51.976;5.326;2022-12-17T09:23:15;11.48;;;8.52;;
61553;SDS011;47425;51.976;5.326;2022-12-17T09:26:00;12.70;;;9.38;;
61553;SDS011;47425;51.976;5.326;2022-12-17T09:28:46;11.55;;;8.93;;
61553;SDS011;47425;51.976;5.326;2022-12-17T09:31:32;11.18;;;8.48;;
61553;SDS011;47425;51.976;5.326;2022-12-17T09:34:18;11.80;;;8.80;;
61553;SDS011;47425;51.976;5.326;2022-12-17T09:37:03;11.48;;;8.77;;
61553;SDS011;47425;51.976;5.326;2022-12-17T09:39:53;11.63;;;8.95;;
61553;SDS011;47425;51.976;5.326;2022-12-17T09:42:48;13.98;;;9.40;;
61553;SDS011;47425;51.976;5.326;2022-12-17T09:45:46;13.82;;;10.18;;
61553;SDS011;47425;51.976;5.326;2022-12-17T09:51:29;13.13;;;9.35;;
61553;SDS011;47425;51.976;5.326;2022-12-17T09:54:28;11.77;;;9.40;;
61553;SDS011;47425;51.976;5.326;2022-12-17T09:57:19;13.68;;;9.55;;
61553;SDS011;47425;51.976;5.326;2022-12-17T10:00:17;11.85;;;8.82;;
61553;SDS011;47425;51.976;5.326;2022-12-17T10:03:15;12.98;;;9.35;;
61553;SDS011;47425;51.976;5.326;2022-12-17T10:06:10;10.83;;;8.43;;
61553;SDS011;47425;51.976;5.326;2022-12-17T10:08:58;12.65;;;9.07;;
61553;SDS011;47425;51.976;5.326;2022-12-17T10:11:45;12.00;;;8.95;;
61553;SDS011;47425;51.976;5.326;2022-12-17T10:14:30;14.23;;;9.98;;
61553;SDS011;47425;51.976;5.326;2022-12-17T10:17:16;13.57;;;8.90;;
61553;SDS011;47425;51.976;5.326;2022-12-17T10:20:03;11.18;;;8.73;;
61553;SDS011;47425;51.976;5.326;2022-12-17T10:23:02;11.63;;;9.20;;
61553;SDS011;47425;51.976;5.326;2022-12-17T10:25:50;16.55;;;9.15;;
61553;SDS011;47425;51.976;5.326;2022-12-17T10:28:35;15.25;;;9.02;;
61553;SDS011;47425;51.976;5.326;2022-12-17T10:31:19;14.25;;;9.10;;
61553;SDS011;47425;51.976;5.326;2022-12-17T10:34:06;13.27;;;8.93;;
61553;SDS011;47425;51.976;5.326;2022-12-17T10:36:56;13.90;;;9.30;;
61553;SDS011;47425;51.976;5.326;2022-12-17T10:39:41;14.02;;;9.52;;
61553;SDS011;47425;51.976;5.326;2022-12-17T10:42:27;18.23;;;9.40;;
61553;SDS011;47425;51.976;5.326;2022-12-17T10:48:22;13.25;;;9.40;;
61553;SDS011;47425;51.976;5.326;2022-12-17T10:54:31;13.77;;;8.55;;
61553;SDS011;47425;51.976;5.326;2022-12-17T10:57:31;10.90;;;8.02;;
61553;SDS011;47425;51.976;5.326;2022-12-17T11:00:22;11.93;;;7.80;;
61553;SDS011;47425;51.976;5.326;2022-12-17T11:03:26;11.25;;;7.88;;
61553;SDS011;47425;51.976;5.326;2022-12-17T11:06:14;9.82;;;6.70;;
61553;SDS011;47425;51.976;5.326;2022-12-17T11:12:28;10.45;;;6.80;;
61553;SDS011;47425;51.976;5.326;2022-12-17T11:18:21;8.23;;;5.80;;
61553;SDS011;47425;51.976;5.326;2022-12-17T11:21:10;6.88;;;5.15;;
61553;SDS011;47425;51.976;5.326;2022-12-17T11:24:00;7.43;;;5.40;;
61553;SDS011;47425;51.976;5.326;2022-12-17T11:26:48;8.73;;;5.35;;
61553;SDS011;47425;51.976;5.326;2022-12-17T11:29:37;7.90;;;5.63;;
61553;SDS011;47425;51.976;5.326;2022-12-17T11:32:32;7.85;;;4.97;;
61553;SDS011;47425;51.976;5.326;2022-12-17T11:35:28;6.65;;;5.03;;
61553;SDS011;47425;51.976;5.326;2022-12-17T11:44:13;6.55;;;4.40;;
61553;SDS011;47425;51.976;5.326;2022-12-17T11:56:31;6.38;;;5.00;;
61553;SDS011;47425;51.976;5.326;2022-12-17T12:11:22;6.63;;;5.47;;
61553;SDS011;47425;51.976;5.326;2022-12-17T12:17:55;7.32;;;5.53;;
61553;SDS011;47425;51.976;5.326;2022-12-17T12:30:14;11.43;;;7.00;;
61553;SDS011;47425;51.976;5.326;2022-12-17T12:36:07;9.20;;;6.65;;
61553;SDS011;47425;51.976;5.326;2022-12-17T12:38:55;10.13;;;6.93;;
61553;SDS011;47425;51.976;5.326;2022-12-17T12:51:12;10.38;;;6.97;;
61553;SDS011;47425;51.976;5.326;2022-12-17T12:54:20;10.50;;;6.88;;
61553;SDS011;47425;51.976;5.326;2022-12-17T12:57:04;9.85;;;7.55;;
61553;SDS011;47425;51.976;5.326;2022-12-17T13:03:16;14.88;;;8.27;;
61553;SDS011;47425;51.976;5.326;2022-12-17T13:06:44;11.30;;;7.53;;
61553;SDS011;47425;51.976;5.326;2022-12-17T13:14:10;14.65;;;8.65;;
61553;SDS011;47425;51.976;5.326;2022-12-17T13:16:47;15.27;;;9.73;;
61553;SDS011;47425;51.976;5.326;2022-12-17T13:19:38;12.98;;;8.90;;
61553;SDS011;47425;51.976;5.326;2022-12-17T13:25:07;15.10;;;10.10;;
61553;SDS011;47425;51.976;5.326;2022-12-17T13:27:40;14.18;;;10.70;;
61553;SDS011;47425;51.976;5.326;2022-12-17T13:35:25;19.27;;;11.38;;
61553;SDS011;47425;51.976;5.326;2022-12-17T13:41:08;16.17;;;11.60;;
61553;SDS011;47425;51.976;5.326;2022-12-17T13:43:38;15.90;;;10.95;;
61553;SDS011;47425;51.976;5.326;2022-12-17T13:46:22;17.80;;;11.43;;
61553;SDS011;47425;51.976;5.326;2022-12-17T13:49:02;19.08;;;11.60;;
61553;SDS011;47425;51.976;5.326;2022-12-17T13:51:30;18.40;;;12.20;;
61553;SDS011;47425;51.976;5.326;2022-12-17T13:54:02;19.23;;;12.83;;
61553;SDS011;47425;51.976;5.326;2022-12-17T13:56:29;18.77;;;12.70;;
61553;SDS011;47425;51.976;5.326;2022-12-17T13:58:58;22.10;;;13.10;;
61553;SDS011;47425;51.976;5.326;2022-12-17T14:01:26;21.48;;;12.55;;
61553;SDS011;47425;51.976;5.326;2022-12-17T14:03:53;17.63;;;11.98;;
61553;SDS011;47425;51.976;5.326;2022-12-17T14:06:21;17.65;;;11.77;;
61553;SDS011;47425;51.976;5.326;2022-12-17T14:08:50;20.02;;;13.00;;
61553;SDS011;47425;51.976;5.326;2022-12-17T14:14:02;16.38;;;11.50;;
61553;SDS011;47425;51.976;5.326;2022-12-17T14:16:28;21.88;;;12.25;;
61553;SDS011;47425;51.976;5.326;2022-12-17T14:18:55;22.50;;;11.57;;
61553;SDS011;47425;51.976;5.326;2022-12-17T14:21:22;17.80;;;10.48;;
61553;SDS011;47425;51.976;5.326;2022-12-17T14:23:55;15.35;;;9.98;;
61553;SDS011;47425;51.976;5.326;2022-12-17T14:26:22;18.48;;;11.20;;
61553;SDS011;47425;51.976;5.326;2022-12-17T14:28:51;21.13;;;10.88;;
61553;SDS011;47425;51.976;5.326;2022-12-17T14:33:46;14.85;;;9.40;;
61553;SDS011;47425;51.976;5.326;2022-12-17T14:36:19;17.63;;;9.13;;
61553;SDS011;47425;51.976;5.326;2022-12-17T14:41:16;13.18;;;8.60;;
61553;SDS011;47425;51.976;5.326;2022-12-17T14:44:00;13.02;;;8.25;;
61553;SDS011;47425;51.976;5.326;2022-12-17T14:46:27;16.63;;;9.55;;
61553;SDS011;47425;51.976;5.326;2022-12-17T14:48:54;19.33;;;9.10;;
61553;SDS011;47425;51.976;5.326;2022-12-17T14:56:38;14.77;;;8.67;;
61553;SDS011;47425;51.976;5.326;2022-12-17T14:59:20;14.65;;;8.63;;
61553;SDS011;47425;51.976;5.326;2022-12-17T15:01:51;16.73;;;8.93;;
61553;SDS011;47425;51.976;5.326;2022-12-17T15:04:18;14.73;;;8.40;;
61553;SDS011;47425;51.976;5.326;2022-12-17T15:06:45;14.75;;;8.43;;
61553;SDS011;47425;51.976;5.326;2022-12-17T15:09:11;13.00;;;8.30;;
61553;SDS011;47425;51.976;5.326;2022-12-17T15:11:38;11.65;;;8.23;;
61553;SDS011;47425;51.976;5.326;2022-12-17T15:14:04;13.45;;;8.73;;
61553;SDS011;47425;51.976;5.326;2022-12-17T15:16:30;12.95;;;8.95;;
61553;SDS011;47425;51.976;5.326;2022-12-17T15:18:55;16.70;;;9.05;;
61553;SDS011;47425;51.976;5.326;2022-12-17T15:21:21;14.88;;;9.35;;
61553;SDS011;47425;51.976;5.326;2022-12-17T15:24:12;14.20;;;9.70;;
61553;SDS011;47425;51.976;5.326;2022-12-17T15:26:42;15.18;;;9.93;;
61553;SDS011;47425;51.976;5.326;2022-12-17T15:29:09;14.68;;;8.98;;
61553;SDS011;47425;51.976;5.326;2022-12-17T15:31:34;13.43;;;8.90;;
61553;SDS011;47425;51.976;5.326;2022-12-17T15:34:00;12.00;;;8.13;;
61553;SDS011;47425;51.976;5.326;2022-12-17T15:36:25;13.63;;;8.95;;
61553;SDS011;47425;51.976;5.326;2022-12-17T15:38:52;13.40;;;8.57;;
61553;SDS011;47425;51.976;5.326;2022-12-17T15:41:17;11.95;;;8.65;;
61553;SDS011;47425;51.976;5.326;2022-12-17T15:44:01;12.07;;;8.77;;
61553;SDS011;47425;51.976;5.326;2022-12-17T15:46:27;13.77;;;8.77;;
61553;SDS011;47425;51.976;5.326;2022-12-17T15:48:55;11.18;;;7.80;;
61553;SDS011;47425;51.976;5.326;2022-12-17T15:51:21;12.65;;;8.27;;
61553;SDS011;47425;51.976;5.326;2022-12-17T15:53:48;12.63;;;7.90;;
61553;SDS011;47425;51.976;5.326;2022-12-17T15:56:20;11.68;;;7.75;;
61553;SDS011;47425;51.976;5.326;2022-12-17T15:58:49;10.45;;;7.85;;
61553;SDS011;47425;51.976;5.326;2022-12-17T16:01:15;11.95;;;7.75;;
61553;SDS011;47425;51.976;5.326;2022-12-17T16:03:41;11.45;;;8.50;;
